Time;durP1;ratioP1;P1;durP2;ratioP2;P2;SDS_P1;SDS_P2;PMS_P1;PMS_P2;Temp;Humidity;BMP_temperature;BMP_pressure;BME280_temperature;BME280_humidity;BME280_pressure;Samples;Min_cycle;Max_cycle;Signal;HPM_P1;HPM_P2
2021/07/06 00:01:55;;;;;;;;;;;19.50;99.90;;;19.25;100.00;100805.06;5094967;28;19924;-66
2021/07/06 00:04:23;;;;;;;;;;;19.50;99.90;;;19.25;100.00;100805.06;5094630;28;19928;-65
2021/07/06 00:06:52;;;;;;;;;;;19.50;99.90;;;19.21;100.00;100801.44;5094638;28;19924;-64
2021/07/06 00:09:20;;;;;;;;;;;19.40;99.90;;;19.17;100.00;100797.81;5095163;28;19928;-65
2021/07/06 00:11:47;;;;;;;;;;;;;;;19.16;100.00;100795.41;5094896;28;20374;-64
2021/07/06 00:14:15;;;;;;;;;;;19.40;99.90;;;19.12;100.00;100802.75;5094115;28;19928;-64
2021/07/06 00:16:43;;;;;;;;;;;19.40;99.90;;;19.09;100.00;100801.47;5094204;28;20327;-65
2021/07/06 00:19:11;;;;;;;;;;;19.30;99.90;;;19.08;100.00;100802.63;5095132;28;20404;-66
2021/07/06 00:21:39;;;;;;;;;;;19.30;99.90;;;19.06;100.00;100793.94;5094484;28;19924;-65
2021/07/06 00:24:09;;;;;;;;;;;19.30;99.90;;;19.07;100.00;100795.53;5093594;28;19924;-65
2021/07/06 00:26:36;;;;;;;;;;;19.30;99.90;;;19.10;100.00;100798.41;5094301;28;19927;-65
2021/07/06 00:29:04;;;;;;;;;;;19.30;99.90;;;19.12;100.00;100787.06;5094786;28;19924;-65
2021/07/06 00:31:32;;;;;;;;;;;;;;;19.15;100.00;100791.84;5094639;28;19924;-65
2021/07/06 00:33:59;;;;;;;;;;;19.30;99.90;;;19.19;100.00;100800.97;5093655;28;19928;-65
2021/07/06 00:36:27;;;;;;;;;;;19.40;99.90;;;19.21;100.00;100792.44;5094151;28;19928;-65
2021/07/06 00:38:55;;;;;;;;;;;19.40;99.90;;;19.24;100.00;100783.50;5094473;28;20382;-65
2021/07/06 00:41:24;;;;;;;;;;;19.50;99.90;;;19.25;100.00;100785.88;5094473;28;19924;-64
2021/07/06 00:43:52;;;;;;;;;;;19.50;99.90;;;19.28;100.00;100784.38;5093487;28;19924;-64
2021/07/06 00:46:19;;;;;;;;;;;19.50;99.90;;;19.29;100.00;100778.56;5093872;28;19932;-65
2021/07/06 00:48:47;;;;;;;;;;;19.50;99.90;;;19.32;100.00;100782.56;5094293;28;19924;-65
2021/07/06 00:51:15;;;;;;;;;;;19.50;99.90;;;19.32;100.00;100788.84;5094275;28;20442;-64
2021/07/06 00:53:42;;;;;;;;;;;19.50;99.90;;;19.32;100.00;100779.81;5093324;28;19924;-64
2021/07/06 00:56:10;;;;;;;;;;;19.50;99.90;;;19.27;100.00;100780.84;5093841;28;20347;-65
2021/07/06 00:58:40;;;;;;;;;;;19.50;99.90;;;19.19;100.00;100779.06;5094121;28;19994;-65
2021/07/06 01:01:08;;;;;;;;;;;19.40;99.90;;;19.17;100.00;100783.28;5094014;28;19934;-65
2021/07/06 01:03:36;;;;;;;;;;;19.40;99.90;;;19.15;100.00;100778.16;5092699;28;19942;-65
2021/07/06 01:06:03;;;;;;;;;;;19.40;99.90;;;19.14;100.00;100773.84;5093560;28;19931;-65
2021/07/06 01:08:31;;;;;;;;;;;19.30;99.90;;;19.17;100.00;100775.06;5093935;28;19928;-65
2021/07/06 01:11:00;;;;;;;;;;;19.40;99.90;;;19.19;100.00;100773.56;5093997;28;19924;-65
2021/07/06 01:13:29;;;;;;;;;;;19.40;99.90;;;19.20;100.00;100774.38;5092843;28;19924;-65
2021/07/06 01:15:58;;;;;;;;;;;19.40;99.90;;;19.19;100.00;100781.81;5093314;28;19928;-64
2021/07/06 01:18:26;;;;;;;;;;;19.40;99.90;;;19.18;100.00;100776.69;5093632;28;19931;-66
2021/07/06 01:20:55;;;;;;;;;;;19.40;99.90;;;19.17;100.00;100764.91;5093685;28;19985;-65
2021/07/06 01:23:28;;;;;;;;;;;19.40;99.90;;;19.15;100.00;100769.91;5092312;28;19924;-66
2021/07/06 01:25:58;;;;;;;;;;;19.40;99.90;;;19.20;100.00;100771.63;5093162;28;19923;-65
2021/07/06 01:28:26;;;;;;;;;;;19.40;99.90;;;19.21;100.00;100760.31;5093601;28;20392;-65
2021/07/06 01:30:54;;;;;;;;;;;19.40;99.90;;;19.22;100.00;100769.34;5093484;28;19931;-65
2021/07/06 01:33:23;;;;;;;;;;;19.40;99.90;;;19.27;100.00;100775.38;5091686;28;20519;-64
2021/07/06 01:35:51;;;;;;;;;;;19.50;99.90;;;19.30;100.00;100779.38;5092992;28;19924;-65
2021/07/06 01:38:19;;;;;;;;;;;19.50;99.90;;;19.29;100.00;100778.56;5093436;28;20026;-64
2021/07/06 01:40:48;;;;;;;;;;;19.50;99.90;;;19.29;100.00;100767.59;5093450;28;19928;-65
2021/07/06 01:43:16;;;;;;;;;;;19.50;99.90;;;19.29;100.00;100770.34;5092320;28;19932;-64
2021/07/06 01:45:44;;;;;;;;;;;19.50;99.90;;;19.30;100.00;100766.44;5092827;28;19931;-66
2021/07/06 01:48:12;;;;;;;;;;;19.50;99.90;;;19.32;100.00;100766.91;5093097;28;19977;-65
2021/07/06 01:50:41;;;;;;;;;;;19.50;99.90;;;19.32;100.00;100766.09;5093367;28;19985;-65
2021/07/06 01:53:10;;;;;;;;;;;19.60;99.90;;;19.31;100.00;100761.75;5092075;28;19931;-65
2021/07/06 01:55:39;;;;;;;;;;;19.50;99.90;;;19.32;100.00;100763.38;5092514;28;20361;-64
2021/07/06 01:58:10;;;;;;;;;;;19.50;99.90;;;19.29;100.00;100769.53;5093044;28;19928;-65
2021/07/06 02:00:39;;;;;;;;;;;19.50;99.90;;;19.24;100.00;100767.06;5093096;28;19932;-64
2021/07/06 02:03:07;;;;;;;;;;;19.50;99.90;;;19.21;100.00;100762.28;5091954;28;19924;-65
2021/07/06 02:05:37;;;;;;;;;;;19.40;99.90;;;19.21;100.00;100763.06;5092373;28;20409;-64
2021/07/06 02:08:07;;;;;;;;;;;19.40;99.90;;;19.19;100.00;100754.38;5093175;28;19931;-65
2021/07/06 02:10:35;;;;;;;;;;;19.40;99.90;;;19.16;100.00;100752.34;5093029;28;19928;-64
2021/07/06 02:13:05;;;;;;;;;;;19.40;99.90;;;19.14;100.00;100749.16;5092000;28;20006;-65
2021/07/06 02:15:34;;;;;;;;;;;19.40;99.90;;;19.09;100.00;100749.38;5092256;28;19931;-64
2021/07/06 02:18:02;;;;;;;;;;;19.30;99.90;;;19.06;100.00;100750.88;5092777;28;19928;-65
2021/07/06 02:20:30;;;;;;;;;;;19.30;99.90;;;19.05;100.00;100752.06;5092864;28;19993;-65
2021/07/06 02:22:57;;;;;;;;;;;19.30;99.90;;;19.04;100.00;100749.66;5091790;28;19978;-64
2021/07/06 02:25:25;;;;;;;;;;;19.30;99.90;;;19.06;100.00;100755.56;5092305;28;19924;-64
2021/07/06 02:27:53;;;;;;;;;;;19.30;99.90;;;19.08;100.00;100756.03;5092606;28;19932;-65
2021/07/06 02:30:24;;;;;;;;;;;19.30;99.90;;;19.08;100.00;100750.56;5092654;28;20357;-65
2021/07/06 02:32:53;;;;;;;;;;;19.30;99.90;;;19.08;100.00;100754.09;5091833;28;19928;-64
2021/07/06 02:35:23;;;;;;;;;;;19.30;99.90;;;19.09;100.00;100754.88;5092110;28;19928;-65
2021/07/06 02:37:51;;;;;;;;;;;19.30;99.90;;;19.08;100.00;100761.53;5092549;28;19932;-65
2021/07/06 02:40:19;;;;;;;;;;;19.30;99.90;;;19.09;100.00;100757.59;5092594;28;19924;-66
2021/07/06 02:42:47;;;;;;;;;;;19.30;99.90;;;19.12;100.00;100758.88;5092446;28;20083;-64
2021/07/06 02:45:16;;;;;;;;;;;19.30;99.90;;;19.10;100.00;100765.50;5096214;28;19930;-64
2021/07/06 02:47:44;;;;;;;;;;;19.30;99.90;;;19.13;100.00;100763.19;5096290;28;19947;-66
2021/07/06 02:50:14;;;;;;;;;;;19.30;99.90;;;19.17;100.00;100759.44;5096518;28;19928;-64
2021/07/06 02:52:42;;;;;;;;;;;19.40;99.90;;;19.15;100.00;100761.69;5095855;28;19978;-65
2021/07/06 02:55:11;;;;;;;;;;;19.40;99.90;;;19.20;100.00;100760.66;5096043;28;19924;-65
2021/07/06 02:57:39;;;;;;;;;;;19.40;99.90;;;19.21;100.00;100754.81;5096400;28;19928;-64
2021/07/06 03:00:12;;;;;;;;;;;19.40;99.90;;;19.23;100.00;100762.72;5096197;28;20340;-65
2021/07/06 03:02:41;;;;;;;;;;;19.40;99.90;;;19.24;100.00;100756.88;5095778;28;19928;-64
2021/07/06 03:05:11;;;;;;;;;;;19.40;99.90;;;19.25;100.00;100753.00;5095403;28;20023;-64
2021/07/06 03:07:41;;;;;;;;;;;19.50;99.90;;;19.32;100.00;100755.94;5096248;28;19977;-64
2021/07/06 03:10:10;;;;;;;;;;;19.50;99.90;;;19.33;100.00;100757.50;5096096;28;19977;-66
2021/07/06 03:12:39;;;;;;;;;;;19.50;99.90;;;19.35;100.00;100757.19;5095486;28;19969;-65
2021/07/06 03:15:08;;;;;;;;;;;19.50;99.90;;;19.35;100.00;100747.00;5095274;28;20339;-65
2021/07/06 03:17:35;;;;;;;;;;;19.60;99.90;;;19.37;100.00;100746.66;5096016;28;19970;-65
2021/07/06 03:20:03;;;;;;;;;;;19.50;99.90;;;19.39;100.00;100742.47;5095989;28;19951;-65
2021/07/06 03:22:31;;;;;;;;;;;19.60;99.90;;;19.46;100.00;100739.09;5095484;28;20377;-65
2021/07/06 03:25:00;;;;;;;;;;;19.60;99.90;;;19.50;100.00;100742.72;5095104;28;19924;-65
2021/07/06 03:27:28;;;;;;;;;;;19.60;99.90;;;19.49;100.00;100732.91;5095851;28;19931;-65
2021/07/06 03:29:56;;;;;;;;;;;19.60;99.90;;;19.48;100.00;100740.34;5095736;28;20293;-65
2021/07/06 03:32:23;;;;;;;;;;;19.70;99.90;;;19.49;100.00;100741.13;5095190;28;20278;-64
2021/07/06 03:34:51;;;;;;;;;;;19.70;99.90;;;19.52;100.00;100738.50;5094800;28;20359;-65
2021/07/06 03:37:19;;;;;;;;;;;19.70;99.90;;;19.50;100.00;100740.00;5095679;28;19966;-65
2021/07/06 03:39:46;;;;;;;;;;;19.70;99.90;;;19.45;100.00;100729.28;5095600;28;19985;-65
2021/07/06 03:42:16;;;;;;;;;;;19.70;99.90;;;19.37;100.00;100731.00;5095016;28;19928;-65
2021/07/06 03:44:44;;;;;;;;;;;19.60;99.90;;;19.41;100.00;100734.69;5094731;28;20005;-65
2021/07/06 03:47:11;;;;;;;;;;;19.60;99.90;;;19.38;100.00;100738.09;5095313;28;19928;-64
2021/07/06 03:49:39;;;;;;;;;;;19.60;99.90;;;19.42;100.00;100736.28;5095549;28;19928;-65
2021/07/06 03:52:07;;;;;;;;;;;19.60;99.90;;;19.42;100.00;100727.25;5094771;28;19924;-65
2021/07/06 03:54:35;;;;;;;;;;;19.60;99.90;;;19.42;100.00;100721.75;5093769;28;19981;-64
2021/07/06 03:57:03;;;;;;;;;;;19.60;99.90;;;19.51;100.00;100723.19;5095055;28;19978;-65
2021/07/06 03:59:32;;;;;;;;;;;19.70;99.90;;;19.55;100.00;100718.59;5095421;28;19924;-64
2021/07/06 04:02:00;;;;;;;;;;;19.70;99.90;;;19.55;100.00;100723.28;5094735;28;19928;-65
2021/07/06 04:04:27;;;;;;;;;;;19.70;99.90;;;19.55;100.00;100723.28;5094184;28;19928;-64
2021/07/06 04:06:55;;;;;;;;;;;19.70;99.90;;;19.61;100.00;100727.34;5094877;28;20547;-64
2021/07/06 04:09:23;;;;;;;;;;;19.70;99.90;;;19.61;100.00;100722.66;5095175;28;19932;-65
2021/07/06 04:11:50;;;;;;;;;;;19.70;99.90;;;19.61;100.00;100714.44;5094819;28;19947;-64
2021/07/06 04:14:18;;;;;;;;;;;19.80;99.90;;;19.64;100.00;100724.69;5094009;28;19928;-65
2021/07/06 04:16:47;;;;;;;;;;;19.80;99.90;;;19.68;100.00;100729.47;5094585;28;19925;-65
2021/07/06 04:19:15;;;;;;;;;;;19.80;99.90;;;19.67;100.00;100728.69;5095000;28;19924;-65
2021/07/06 04:21:43;;;;;;;;;;;19.80;99.90;;;19.62;100.00;100726.22;5094554;28;20301;-64
2021/07/06 04:24:10;;;;;;;;;;;19.80;99.90;;;19.60;100.00;100723.84;5093795;28;19993;-64
2021/07/06 04:26:38;;;;;;;;;;;19.70;99.90;;;19.60;100.00;100728.50;5094236;28;20060;-65
2021/07/06 04:29:06;;;;;;;;;;;19.70;99.90;;;19.57;100.00;100730.03;5094825;28;20447;-65
2021/07/06 04:31:33;;;;;;;;;;;19.70;99.90;;;19.58;100.00;100719.81;5094675;28;19928;-65
2021/07/06 04:34:03;;;;;;;;;;;19.70;99.90;;;19.57;100.00;100732.75;5093221;28;19928;-64
2021/07/06 04:36:30;;;;;;;;;;;19.70;99.90;;;19.57;100.00;100730.03;5094067;28;20381;-65
2021/07/06 04:38:58;;;;;;;;;;;19.80;99.90;;;19.60;100.00;100734.81;5094750;28;19928;-64
2021/07/06 04:41:26;;;;;;;;;;;19.70;99.90;;;19.65;100.00;100731.00;5094539;28;19928;-66
2021/07/06 04:43:53;;;;;;;;;;;19.80;99.90;;;19.68;100.00;100734.97;5093283;28;20404;-66
2021/07/06 04:46:21;;;;;;;;;;;19.80;99.90;;;19.68;100.00;100737.72;5093810;28;19931;-64
2021/07/06 04:48:49;;;;;;;;;;;19.80;99.90;;;19.68;100.00;100730.28;5094171;28;19936;-65
2021/07/06 04:51:18;;;;;;;;;;;19.90;99.90;;;19.67;100.00;100736.91;5094329;28;19928;-65
2021/07/06 04:53:46;;;;;;;;;;;19.90;99.90;;;19.68;100.00;100735.78;5093169;28;19924;-64
2021/07/06 04:56:14;;;;;;;;;;;19.90;99.90;;;19.72;100.00;100736.66;5093671;28;19928;-64
2021/07/06 04:58:41;;;;;;;;;;;19.90;99.90;;;19.74;100.00;100739.03;5094286;28;19928;-65
2021/07/06 05:01:10;;;;;;;;;;;19.90;99.90;;;19.76;100.00;100742.25;5094020;28;19931;-65
2021/07/06 05:03:38;;;;;;;;;;;20.00;99.90;;;19.78;100.00;100739.94;5092980;28;19974;-65
2021/07/06 05:06:06;;;;;;;;;;;20.00;99.90;;;19.83;100.00;100736.94;5092769;28;19924;-64
2021/07/06 05:08:35;;;;;;;;;;;20.00;99.90;;;19.88;100.00;100742.16;5093880;28;19958;-65
2021/07/06 05:11:03;;;;;;;;;;;20.10;99.90;;;19.85;100.00;100740.91;5093998;28;20366;-64
2021/07/06 05:13:32;;;;;;;;;;;20.10;99.90;;;19.81;100.00;100739.22;5092677;28;19920;-64
2021/07/06 05:16:00;;;;;;;;;;;20.00;99.90;;;19.81;100.00;100741.97;5093374;28;19935;-65
2021/07/06 05:18:28;;;;;;;;;;;20.00;99.90;;;19.82;100.00;100740.84;5093928;28;20373;-65
2021/07/06 05:20:55;;;;;;;;;;;20.00;99.90;;;19.85;100.00;100753.84;5093583;28;20301;-65
2021/07/06 05:23:23;;;;;;;;;;;20.00;99.90;;;19.88;100.00;100753.16;5092612;28;19931;-64
2021/07/06 05:25:52;;;;;;;;;;;20.10;99.90;;;19.90;100.00;100748.88;5092882;28;19924;-65
2021/07/06 05:28:20;;;;;;;;;;;20.10;99.90;;;19.89;100.00;100747.28;5093686;28;20435;-65
2021/07/06 05:30:47;;;;;;;;;;;20.10;99.90;;;19.89;100.00;100758.25;5093675;28;20427;-64
2021/07/06 05:33:15;;;;;;;;;;;20.10;99.90;;;19.88;100.00;100753.16;5092343;28;20041;-65
2021/07/06 05:35:43;;;;;;;;;;;20.10;99.90;;;19.94;100.00;100755.25;5092739;28;19924;-65
2021/07/06 05:38:11;;;;;;;;;;;20.20;99.90;;;19.97;100.00;100748.28;5093546;28;20258;-65
2021/07/06 05:40:40;;;;;;;;;;;20.20;99.90;;;19.98;100.00;100745.16;5093458;28;19978;-65
2021/07/06 05:43:09;;;;;;;;;;;20.20;99.90;;;19.95;100.00;100743.13;5092280;28;19932;-65
2021/07/06 05:45:37;;;;;;;;;;;20.20;99.90;;;19.99;100.00;100752.25;5092554;28;19924;-64
2021/07/06 05:48:05;;;;;;;;;;;20.30;99.90;;;19.99;100.00;100751.44;5093440;28;19928;-65
2021/07/06 05:50:33;;;;;;;;;;;20.30;99.90;;;20.02;100.00;100756.22;5093353;28;19977;-65
2021/07/06 05:53:01;;;;;;;;;;;20.30;99.90;;;20.04;100.00;100757.47;5091987;28;19928;-65
2021/07/06 05:55:28;;;;;;;;;;;20.30;99.90;;;20.05;100.00;100747.28;5092534;28;19928;-65
2021/07/06 05:57:56;;;;;;;;;;;20.30;99.90;;;20.08;100.00;100750.13;5093054;28;19931;-65
2021/07/06 06:00:25;;;;;;;;;;;20.40;99.90;;;20.04;100.00;100749.22;5093237;28;20361;-64
2021/07/06 06:02:53;;;;;;;;;;;20.30;99.90;;;20.04;100.00;100753.91;5092077;28;19977;-64
2021/07/06 06:05:21;;;;;;;;;;;20.30;99.90;;;20.02;100.00;100759.78;5092153;28;20343;-65
2021/07/06 06:07:49;;;;;;;;;;;20.30;99.90;;;20.04;100.00;100762.16;5092701;28;19933;-64
2021/07/06 06:10:17;;;;;;;;;;;20.30;99.90;;;20.07;100.00;100765.00;5093069;28;20298;-64
2021/07/06 06:12:45;;;;;;;;;;;20.30;99.90;;;20.09;100.00;100765.44;5091927;28;19924;-64
2021/07/06 06:15:13;;;;;;;;;;;20.40;99.90;;;20.09;100.00;100768.16;5091986;28;19927;-65
2021/07/06 06:17:43;;;;;;;;;;;20.40;99.90;;;20.13;100.00;100760.84;5092453;28;19958;-65
2021/07/06 06:20:11;;;;;;;;;;;20.40;99.90;;;20.15;100.00;100755.00;5092855;28;20347;-65
2021/07/06 06:22:39;;;;;;;;;;;20.40;99.90;;;20.14;100.00;100765.19;5091830;28;19924;-65
2021/07/06 06:25:08;;;;;;;;;;;20.40;99.90;;;20.19;100.00;100769.59;5091989;28;19935;-65
2021/07/06 06:27:35;;;;;;;;;;;20.50;99.90;;;20.19;100.00;100761.34;5092595;28;19935;-65
2021/07/06 06:30:04;;;;;;;;;;;20.50;99.90;;;20.22;100.00;100768.88;5092719;28;19931;-65
2021/07/06 06:32:32;;;;;;;;;;;20.50;99.90;;;20.19;100.00;100770.38;5091873;28;19924;-65
2021/07/06 06:35:01;;;;;;;;;;;20.50;99.90;;;20.26;100.00;100767.06;5092216;28;19928;-64
2021/07/06 06:37:29;;;;;;;;;;;20.50;99.90;;;20.27;100.00;100762.38;5092449;28;20365;-65
2021/07/06 06:39:56;;;;;;;;;;;20.50;99.90;;;20.30;100.00;100773.44;5092723;28;19928;-65
2021/07/06 06:42:24;;;;;;;;;;;20.60;99.90;;;20.27;100.00;100774.16;5092129;28;19932;-65
2021/07/06 06:44:52;;;;;;;;;;;20.50;99.90;;;20.28;100.00;100772.97;5092199;28;19924;-65
2021/07/06 06:47:19;;;;;;;;;;;20.60;99.90;;;20.29;100.00;100782.03;5092188;28;19928;-65
2021/07/06 06:49:47;;;;;;;;;;;20.60;99.90;;;20.34;100.00;100785.28;5092573;28;19938;-65
2021/07/06 06:52:16;;;;;;;;;;;20.60;99.90;;;20.36;100.00;100784.94;5092010;28;19931;-65
2021/07/06 06:54:44;;;;;;;;;;;20.60;99.90;;;20.41;100.00;100787.41;5091913;28;19927;-65
2021/07/06 06:57:12;;;;;;;;;;;20.70;99.90;;;20.45;100.00;100791.84;5092154;28;19924;-65
2021/07/06 06:59:40;;;;;;;;;;;20.70;99.90;;;20.50;100.00;100788.00;5092418;28;19924;-65
2021/07/06 07:02:20;;;;;;;;;;;20.80;99.90;;;20.52;100.00;100791.19;5091861;28;19924;-65
2021/07/06 07:04:49;;;;;;;;;;;20.80;99.90;;;20.47;100.00;100788.72;5092126;28;19928;-65
2021/07/06 07:07:19;;;;;;;;;;;20.80;99.90;;;20.49;100.00;100791.91;5091965;28;19969;-64
2021/07/06 07:09:47;;;;;;;;;;;20.80;99.90;;;20.58;100.00;100793.31;5092379;28;19989;-65
2021/07/06 07:12:15;;;;;;;;;;;20.90;99.90;;;20.64;100.00;100799.31;5091721;28;19935;-65
2021/07/06 07:14:43;;;;;;;;;;;20.90;99.90;;;20.58;100.00;100787.00;5091517;28;19924;-65
2021/07/06 07:17:11;;;;;;;;;;;20.90;99.90;;;20.61;100.00;100798.09;5092063;28;19928;-65
2021/07/06 07:19:39;;;;;;;;;;;20.90;99.90;;;20.67;100.00;100795.91;5092293;28;20274;-64
2021/07/06 07:22:08;;;;;;;;;;;21.00;99.90;;;20.70;100.00;100809.69;5091635;28;19924;-65
2021/07/06 07:24:38;;;;;;;;;;;21.00;99.90;;;20.72;100.00;100801.09;5091582;28;20365;-65
2021/07/06 07:27:06;;;;;;;;;;;21.00;99.90;;;20.81;100.00;100806.38;5091731;28;19943;-65
2021/07/06 07:29:34;;;;;;;;;;;21.10;99.90;;;20.76;100.00;100799.25;5092452;28;19928;-65
2021/07/06 07:32:05;;;;;;;;;;;21.10;99.90;;;20.77;100.00;100802.75;5095275;28;19924;-65
2021/07/06 07:34:33;;;;;;;;;;;21.00;99.90;;;20.87;100.00;100802.22;5095316;28;19931;-64
2021/07/06 07:37:02;;;;;;;;;;;21.10;99.90;;;20.90;100.00;100798.75;5095388;28;19997;-65
2021/07/06 07:39:29;;;;;;;;;;;21.20;99.90;;;20.97;100.00;100804.41;5095775;28;20022;-65
2021/07/06 07:41:59;;;;;;;;;;;21.30;99.90;;;20.93;100.00;100806.28;5095255;28;19928;-64
2021/07/06 07:44:26;;;;;;;;;;;21.20;99.90;;;20.91;100.00;100805.84;5094971;28;19928;-65
2021/07/06 07:46:54;;;;;;;;;;;21.20;99.90;;;20.89;100.00;100808.94;5095238;28;19935;-64
2021/07/06 07:49:22;;;;;;;;;;;21.20;99.90;;;20.93;100.00;100806.28;5095637;28;19924;-65
2021/07/06 07:51:50;;;;;;;;;;;21.20;99.90;;;21.02;100.00;100809.59;5095410;28;19947;-65
2021/07/06 07:54:17;;;;;;;;;;;21.30;99.90;;;21.03;100.00;100805.72;5094359;28;19924;-65
2021/07/06 07:56:45;;;;;;;;;;;21.30;99.90;;;21.02;100.00;100815.91;5095089;28;19932;-65
2021/07/06 07:59:14;;;;;;;;;;;21.30;99.90;;;21.03;100.00;100811.22;5095490;28;19928;-65
2021/07/06 08:01:42;;;;;;;;;;;21.30;99.90;;;21.10;100.00;100811.38;5095214;28;19935;-64
2021/07/06 08:04:10;;;;;;;;;;;21.40;99.90;;;21.12;100.00;100814.59;5094119;28;19931;-65
2021/07/06 08:06:37;;;;;;;;;;;21.40;99.90;;;21.16;100.00;100813.47;5094752;28;19930;-66
2021/07/06 08:09:05;;;;;;;;;;;21.50;99.90;;;21.26;100.00;100814.88;5095341;28;19924;-65
2021/07/06 08:11:33;;;;;;;;;;;21.60;99.90;;;21.23;100.00;100807.34;5095139;28;20374;-65
2021/07/06 08:14:01;;;;;;;;;;;21.50;99.90;;;21.31;100.00;100811.03;5093803;28;20289;-64
2021/07/06 08:16:31;;;;;;;;;;;21.60;99.90;;;21.37;100.00;100810.38;5094608;28;19931;-64
2021/07/06 08:18:58;;;;;;;;;;;21.70;99.90;;;21.47;100.00;100814.50;5094842;28;19932;-65
2021/07/06 08:21:26;;;;;;;;;;;21.80;99.90;;;21.68;100.00;100810.22;5095019;28;20385;-65
2021/07/06 08:23:57;;;;;;;;;;;22.00;99.90;;;21.96;100.00;100798.16;5093756;28;19924;-64
2021/07/06 08:26:25;;;;;;;;;;;22.20;99.90;;;22.26;100.00;100793.53;5094341;28;20366;-65
2021/07/06 08:28:53;;;;;;;;;;;22.50;99.90;;;22.61;100.00;100796.88;5094907;28;20271;-65
2021/07/06 08:31:21;;;;;;;;;;;22.80;99.90;;;23.24;98.95;100785.13;5094817;28;20304;-66
2021/07/06 08:33:50;;;;;;;;;;;23.40;99.90;;;23.45;92.23;100779.91;5093602;28;19932;-65
2021/07/06 08:36:18;;;;;;;;;;;23.70;99.90;;;23.67;90.63;100781.72;5094239;28;19931;-65
2021/07/06 08:38:46;;;;;;;;;;;23.90;99.90;;;24.13;87.66;100778.63;5094685;28;19924;-65
2021/07/06 08:41:14;;;;;;;;;;;24.40;99.90;;;24.68;85.13;100771.91;5094331;28;19925;-65
2021/07/06 08:43:42;;;;;;;;;;;24.90;99.90;;;24.98;79.54;100769.75;5093382;28;19924;-65
2021/07/06 08:46:10;;;;;;;;;;;25.30;99.90;;;25.52;78.60;100771.53;5093918;28;19925;-65
2021/07/06 08:48:37;;;;;;;;;;;25.80;99.90;;;25.92;74.30;100775.97;5094521;28;19928;-65
2021/07/06 08:51:07;;;;;;;;;;;26.30;99.90;;;26.02;72.11;100763.31;5094617;28;19924;-66
2021/07/06 08:53:34;;;;;;;;;;;26.60;99.90;;;26.19;70.19;100779.16;5093301;28;19973;-66
2021/07/06 08:56:06;;;;;;;;;;;26.70;99.90;;;26.37;68.18;100768.06;5093926;28;19924;-65
2021/07/06 08:58:33;;;;;;;;;;;26.80;99.90;;;26.48;66.96;100777.13;5094193;28;19978;-65
2021/07/06 09:01:01;;;;;;;;;;;27.00;99.90;;;26.17;66.74;100780.75;5094331;28;19942;-65
2021/07/06 09:03:29;;;;;;;;;;;;;;;26.25;68.17;100776.78;5093194;28;19928;-65
2021/07/06 09:06:03;;;;;;;;;;;;;;;26.22;67.80;100783.13;5093839;28;19928;-65
2021/07/06 09:08:32;;;;;;;;;;;26.70;99.90;;;25.91;68.11;100788.22;5094023;28;19924;-65
2021/07/06 09:11:14;;;;;;;;;;;26.50;99.90;;;25.98;67.68;100793.78;5093911;28;20437;-65
2021/07/06 09:13:42;;;;;;;;;;;26.50;99.90;;;25.54;69.08;100804.34;5092775;28;19931;-65
2021/07/06 09:16:21;;;;;;;;;;;26.20;99.90;;;25.64;71.62;100800.03;5093549;28;19928;-66
2021/07/06 09:18:48;;;;;;;;;;;26.20;99.90;;;25.72;70.87;100801.63;5094015;28;19932;-65
2021/07/06 09:21:16;;;;;;;;;;;26.30;99.90;;;25.21;72.27;100821.22;5093912;28;19935;-66
2021/07/06 09:23:49;;;;;;;;;;;25.70;99.90;;;24.98;73.44;100810.44;5092593;28;20365;-65
2021/07/06 09:26:19;;;;;;;;;;;25.70;99.90;;;24.95;74.78;100814.78;5093232;28;19924;-65
2021/07/06 09:28:48;;;;;;;;;;;25.60;99.90;;;24.99;73.96;100804.50;5093859;28;19924;-65
2021/07/06 09:31:20;;;;;;;;;;;25.70;99.90;;;25.14;74.48;100804.59;5093868;28;19932;-65
2021/07/06 09:33:50;;;;;;;;;;;25.70;99.90;;;25.17;72.75;100798.28;5092751;28;19925;-66
2021/07/06 09:36:36;;;;;;;;;;;25.80;99.90;;;25.20;72.18;100801.03;5093239;28;19986;-66
2021/07/06 09:39:20;;;;;;;;;;;25.90;99.90;;;25.54;72.76;100796.06;5092993;28;19924;-65
2021/07/06 09:41:59;;;;;;;;;;;26.00;99.90;;;25.36;71.53;100795.97;5093348;28;19928;-65
2021/07/06 09:44:30;;;;;;;;;;;26.10;99.90;;;25.49;71.65;100799.22;5092870;28;19932;-66
2021/07/06 09:47:00;;;;;;;;;;;26.00;99.90;;;25.82;69.71;100795.31;5092881;28;19924;-66
2021/07/06 09:49:30;;;;;;;;;;;26.30;99.90;;;25.46;68.66;100800.75;5093348;28;19928;-65
2021/07/06 09:52:00;;;;;;;;;;;26.10;99.90;;;25.55;69.90;100805.94;5092679;28;19928;-65
2021/07/06 09:54:31;;;;;;;;;;;26.10;99.90;;;25.62;68.30;100805.97;5092212;28;19978;-65
2021/07/06 09:57:13;;;;;;;;;;;26.20;99.90;;;25.02;69.89;100802.94;5092767;28;19935;-65
2021/07/06 09:59:54;;;;;;;;;;;25.80;99.90;;;24.89;71.79;100801.69;5093156;28;19928;-65
2021/07/06 10:02:22;;;;;;;;;;;25.50;99.90;;;24.93;73.03;100803.28;5092441;28;19924;-65
2021/07/06 10:04:52;;;;;;;;;;;25.50;99.90;;;24.79;72.42;100805.94;5092687;28;19952;-65
2021/07/06 10:07:21;;;;;;;;;;;25.40;99.90;;;24.42;73.74;100805.28;5092331;28;19975;-66
2021/07/06 10:09:51;;;;;;;;;;;25.10;99.90;;;24.33;74.60;100799.31;5092951;28;19935;-65
2021/07/06 10:12:20;;;;;;;;;;;24.90;99.90;;;24.48;74.70;100803.75;5092372;28;19932;-65
2021/07/06 10:14:48;;;;;;;;;;;25.00;99.90;;;24.58;73.82;100805.00;5092371;28;20385;-67
2021/07/06 10:17:16;;;;;;;;;;;25.10;99.90;;;24.77;74.17;100815.81;5092072;28;19932;-66
2021/07/06 10:19:45;;;;;;;;;;;25.20;99.90;;;25.17;72.63;100814.88;5092715;28;20313;-65
2021/07/06 10:22:14;;;;;;;;;;;25.50;99.90;;;25.34;70.39;100809.41;5092247;28;20370;-64
2021/07/06 10:24:43;;;;;;;;;;;25.80;99.90;;;25.29;71.68;100812.53;5092354;28;19928;-65
2021/07/06 10:27:17;;;;;;;;;;;25.80;99.90;;;25.52;70.20;100817.81;5092025;28;19924;-65
2021/07/06 10:29:45;;;;;;;;;;;26.00;99.90;;;25.58;67.92;100818.22;5092841;28;19931;-66
2021/07/06 10:32:40;;;;;;;;;;;26.10;99.90;;;24.94;69.56;100821.47;5092170;28;19928;-65
2021/07/06 10:35:10;;;;;;;;;;;25.70;99.90;;;24.89;73.94;100832.91;5092555;28;20284;-65
2021/07/06 10:37:38;;;;;;;;;;;25.50;99.90;;;25.05;70.93;100837.34;5091945;28;19994;-65
2021/07/06 10:40:23;;;;;;;;;;;25.60;99.90;;;25.09;71.30;100844.47;5092921;28;19930;-65
2021/07/06 10:42:53;;;;;;;;;;;25.50;99.90;;;25.28;70.34;100844.19;5091696;28;20381;-65
2021/07/06 10:45:23;;;;;;;;;;;25.70;99.90;;;25.23;70.34;100854.84;5092558;28;19928;-66
2021/07/06 10:47:52;;;;;;;;;;;25.80;99.90;;;25.11;70.07;100852.41;5091773;28;19932;-65
2021/07/06 10:50:25;;;;;;;;;;;25.70;99.90;;;25.34;71.26;100855.66;5092615;28;19928;-65
2021/07/06 10:53:17;;;;;;;;;;;25.80;99.90;;;25.67;68.93;100855.44;5091784;28;19928;-65
2021/07/06 10:55:46;;;;;;;;;;;26.10;99.90;;;25.37;69.10;100852.13;5092274;28;20392;-66
2021/07/06 10:59:03;;;;;;;;;;;25.90;99.90;;;25.40;68.78;100854.13;5092176;28;19924;-65
2021/07/06 11:01:54;;;;;;;;;;;25.90;99.90;;;25.68;68.46;100847.94;5010375;28;19929;-65
2021/07/06 11:05:16;;;;;;;;;;;26.10;99.90;;;25.62;67.46;100838.41;5009580;28;19968;-65
2021/07/06 11:07:50;;;;;;;;;;;26.10;99.90;;;25.35;67.08;100852.50;5094390;28;19971;-65
2021/07/06 11:10:20;;;;;;;;;;;25.90;99.90;;;25.24;67.49;100851.66;5096440;28;20019;-65
2021/07/06 11:12:49;;;;;;;;;;;25.80;99.90;;;25.15;67.33;100844.91;5095328;28;20366;-66
2021/07/06 11:15:30;;;;;;;;;;;25.70;99.90;;;25.21;66.46;100843.34;5095943;28;20460;-65